Carrolls, Washington
Current Conditions -  °F | °C
As of 1:55 AM on Saturday 29 Nov 2014 (Local Time) from KKLS Reporting Station
Overcast Overcast  
Wind Chill: 36°   Ceiling: 5500
Heat Index: 39°   Visibility: 10mi
Dew Point: 36°   Wind: 5mph
Humidity: 87%   Direction: 170°S
Pressure: 29.65"   Gusts: NA
Location:  46.07°N, 122.86°W
Report Text: KKLS 290955Z 17004KT 10SM SCT038 BKN055 OVC090 04/02 A2965 RMK AO1
Loading
Personal Weather Stations






























Interactive Weather Map New forecast layout! Learn more

10-Day Weather Forecast

Advertisements
Track Severe Weather on mobile